sensor_id;sensor_type;location;lat;lon;timestamp;pressure;altitude;pressure_sealevel;temperature;humidity
71165;BME280;58859;55.132;-1.586;2023-05-08T00:01:45;101357.00;;;13.00;100.00
71165;BME280;58859;55.132;-1.586;2023-05-08T00:04:11;101354.78;;;12.88;100.00
71165;BME280;58859;55.132;-1.586;2023-05-08T00:06:37;101359.19;;;12.78;100.00
71165;BME280;58859;55.132;-1.586;2023-05-08T00:09:02;101354.59;;;12.89;100.00
71165;BME280;58859;55.132;-1.586;2023-05-08T00:11:28;101356.66;;;12.68;100.00
71165;BME280;58859;55.132;-1.586;2023-05-08T00:13:53;101362.38;;;12.44;100.00
71165;BME280;58859;55.132;-1.586;2023-05-08T00:16:19;101355.19;;;12.83;100.00
71165;BME280;58859;55.132;-1.586;2023-05-08T00:18:44;101356.63;;;12.95;100.00
71165;BME280;58859;55.132;-1.586;2023-05-08T00:21:10;101357.38;;;12.88;100.00
71165;BME280;58859;55.132;-1.586;2023-05-08T00:23:35;101358.03;;;12.90;100.00
71165;BME280;58859;55.132;-1.586;2023-05-08T00:26:00;101355.38;;;12.99;100.00
71165;BME280;58859;55.132;-1.586;2023-05-08T00:28:26;101363.44;;;12.88;100.00
71165;BME280;58859;55.132;-1.586;2023-05-08T00:30:51;101357.81;;;12.56;100.00
71165;BME280;58859;55.132;-1.586;2023-05-08T00:33:17;101353.78;;;12.61;100.00
71165;BME280;58859;55.132;-1.586;2023-05-08T00:35:42;101350.28;;;12.43;100.00
71165;BME280;58859;55.132;-1.586;2023-05-08T00:38:08;101339.97;;;12.51;100.00
71165;BME280;58859;55.132;-1.586;2023-05-08T00:40:34;101342.97;;;12.56;100.00
71165;BME280;58859;55.132;-1.586;2023-05-08T00:43:01;101334.56;;;12.62;100.00
71165;BME280;58859;55.132;-1.586;2023-05-08T00:45:31;101335.19;;;12.47;100.00
71165;BME280;58859;55.132;-1.586;2023-05-08T00:47:58;101333.69;;;12.99;100.00
71165;BME280;58859;55.132;-1.586;2023-05-08T00:50:24;101335.38;;;13.35;100.00
71165;BME280;58859;55.132;-1.586;2023-05-08T00:52:49;101324.47;;;13.22;100.00
71165;BME280;58859;55.132;-1.586;2023-05-08T00:55:16;101323.72;;;13.47;100.00
71165;BME280;58859;55.132;-1.586;2023-05-08T00:57:45;101321.09;;;13.91;100.00
71165;BME280;58859;55.132;-1.586;2023-05-08T01:00:12;101319.13;;;14.10;100.00
71165;BME280;58859;55.132;-1.586;2023-05-08T01:02:38;101317.25;;;14.03;100.00
71165;BME280;58859;55.132;-1.586;2023-05-08T01:05:05;101323.91;;;14.23;100.00
71165;BME280;58859;55.132;-1.586;2023-05-08T01:07:31;101318.22;;;14.27;100.00
71165;BME280;58859;55.132;-1.586;2023-05-08T01:09:56;101320.31;;;14.50;100.00
71165;BME280;58859;55.132;-1.586;2023-05-08T01:12:28;101323.09;;;14.56;100.00
71165;BME280;58859;55.132;-1.586;2023-05-08T01:15:07;101317.25;;;14.62;100.00
71165;BME280;58859;55.132;-1.586;2023-05-08T01:20:31;101320.72;;;14.71;100.00
71165;BME280;58859;55.132;-1.586;2023-05-08T01:29:04;101313.59;;;14.97;100.00
71165;BME280;58859;55.132;-1.586;2023-05-08T01:34:43;101302.50;;;15.19;100.00
71165;BME280;58859;55.132;-1.586;2023-05-08T01:37:14;101302.66;;;15.18;100.00
71165;BME280;58859;55.132;-1.586;2023-05-08T01:40:11;101300.03;;;15.42;100.00
71165;BME280;58859;55.132;-1.586;2023-05-08T01:45:45;101292.50;;;15.39;100.00
71165;BME280;58859;55.132;-1.586;2023-05-08T01:48:17;101298.56;;;15.15;100.00
71165;BME280;58859;55.132;-1.586;2023-05-08T01:50:46;101297.56;;;15.00;100.00
71165;BME280;58859;55.132;-1.586;2023-05-08T01:53:20;101295.91;;;14.99;100.00
71165;BME280;58859;55.132;-1.586;2023-05-08T01:55:49;101290.97;;;14.80;100.00
71165;BME280;58859;55.132;-1.586;2023-05-08T01:58:16;101293.13;;;14.43;100.00
71165;BME280;58859;55.132;-1.586;2023-05-08T02:00:43;101292.06;;;14.61;100.00
71165;BME280;58859;55.132;-1.586;2023-05-08T02:03:10;101297.16;;;14.79;100.00
71165;BME280;58859;55.132;-1.586;2023-05-08T02:05:38;101296.22;;;14.88;100.00
71165;BME280;58859;55.132;-1.586;2023-05-08T02:08:07;101295.22;;;14.81;100.00
71165;BME280;58859;55.132;-1.586;2023-05-08T02:10:34;101295.44;;;14.95;100.00
71165;BME280;58859;55.132;-1.586;2023-05-08T02:13:01;101293.78;;;14.94;100.00
71165;BME280;58859;55.132;-1.586;2023-05-08T02:15:29;101284.25;;;14.85;100.00
71165;BME280;58859;55.132;-1.586;2023-05-08T02:17:57;101275.31;;;15.12;100.00
71165;BME280;58859;55.132;-1.586;2023-05-08T02:20:24;101273.25;;;14.74;100.00
71165;BME280;58859;55.132;-1.586;2023-05-08T02:22:50;101264.47;;;15.07;100.00
71165;BME280;58859;55.132;-1.586;2023-05-08T02:25:17;101265.94;;;14.85;100.00
71165;BME280;58859;55.132;-1.586;2023-05-08T02:27:47;101271.81;;;14.79;100.00
71165;BME280;58859;55.132;-1.586;2023-05-08T02:30:16;101271.16;;;14.85;100.00
71165;BME280;58859;55.132;-1.586;2023-05-08T02:32:46;101264.50;;;15.23;100.00
71165;BME280;58859;55.132;-1.586;2023-05-08T02:35:15;101260.56;;;15.03;100.00
71165;BME280;58859;55.132;-1.586;2023-05-08T02:37:46;101267.13;;;15.23;100.00
71165;BME280;58859;55.132;-1.586;2023-05-08T02:40:15;101252.88;;;15.26;100.00
71165;BME280;58859;55.132;-1.586;2023-05-08T02:42:42;101259.59;;;15.20;100.00
71165;BME280;58859;55.132;-1.586;2023-05-08T02:45:08;101258.41;;;14.98;100.00
71165;BME280;58859;55.132;-1.586;2023-05-08T02:47:42;101261.22;;;15.13;100.00
71165;BME280;58859;55.132;-1.586;2023-05-08T02:50:17;101256.16;;;15.12;100.00
71165;BME280;58859;55.132;-1.586;2023-05-08T02:52:48;101255.47;;;15.02;100.00
71165;BME280;58859;55.132;-1.586;2023-05-08T02:55:41;101240.88;;;14.83;100.00
71165;BME280;58859;55.132;-1.586;2023-05-08T03:01:04;101248.09;;;15.13;100.00
71165;BME280;58859;55.132;-1.586;2023-05-08T03:03:39;101231.91;;;15.10;100.00
71165;BME280;58859;55.132;-1.586;2023-05-08T03:06:11;101227.66;;;14.92;100.00
71165;BME280;58859;55.132;-1.586;2023-05-08T03:08:39;101225.69;;;14.94;100.00
71165;BME280;58859;55.132;-1.586;2023-05-08T03:11:17;101220.91;;;14.74;100.00
71165;BME280;58859;55.132;-1.586;2023-05-08T03:13:44;101221.31;;;14.45;100.00
71165;BME280;58859;55.132;-1.586;2023-05-08T03:16:16;101217.25;;;14.09;100.00
71165;BME280;58859;55.132;-1.586;2023-05-08T03:18:51;101206.38;;;14.29;100.00
71165;BME280;58859;55.132;-1.586;2023-05-08T03:21:19;101208.09;;;14.05;100.00
71165;BME280;58859;55.132;-1.586;2023-05-08T03:23:50;101204.78;;;14.45;100.00
71165;BME280;58859;55.132;-1.586;2023-05-08T03:26:17;101198.66;;;14.28;100.00
71165;BME280;58859;55.132;-1.586;2023-05-08T03:28:50;101201.59;;;14.25;100.00
71165;BME280;58859;55.132;-1.586;2023-05-08T03:31:19;101202.84;;;14.38;100.00
71165;BME280;58859;55.132;-1.586;2023-05-08T03:33:46;101199.91;;;14.08;100.00
71165;BME280;58859;55.132;-1.586;2023-05-08T03:36:13;101196.84;;;14.20;100.00
71165;BME280;58859;55.132;-1.586;2023-05-08T03:38:39;101192.69;;;14.44;100.00
71165;BME280;58859;55.132;-1.586;2023-05-08T03:41:05;101183.38;;;14.49;100.00
71165;BME280;58859;55.132;-1.586;2023-05-08T03:43:31;101179.81;;;14.82;100.00
71165;BME280;58859;55.132;-1.586;2023-05-08T03:45:57;101185.19;;;14.65;100.00
71165;BME280;58859;55.132;-1.586;2023-05-08T03:48:23;101174.75;;;15.13;100.00
71165;BME280;58859;55.132;-1.586;2023-05-08T03:50:49;101179.50;;;14.69;100.00
71165;BME280;58859;55.132;-1.586;2023-05-08T03:53:15;101178.34;;;14.88;100.00
71165;BME280;58859;55.132;-1.586;2023-05-08T03:55:40;101169.50;;;14.57;100.00
71165;BME280;58859;55.132;-1.586;2023-05-08T04:01:03;101167.88;;;14.88;100.00
71165;BME280;58859;55.132;-1.586;2023-05-08T04:09:04;101172.47;;;14.78;100.00
71165;BME280;58859;55.132;-1.586;2023-05-08T04:14:09;101157.91;;;14.75;100.00
71165;BME280;58859;55.132;-1.586;2023-05-08T04:16:41;101163.78;;;14.85;100.00
71165;BME280;58859;55.132;-1.586;2023-05-08T04:19:22;101162.00;;;14.78;100.00
71165;BME280;58859;55.132;-1.586;2023-05-08T04:21:49;101160.34;;;14.61;100.00
71165;BME280;58859;55.132;-1.586;2023-05-08T04:24:16;101156.25;;;14.82;100.00
71165;BME280;58859;55.132;-1.586;2023-05-08T04:26:42;101158.06;;;14.90;100.00
71165;BME280;58859;55.132;-1.586;2023-05-08T04:29:08;101158.38;;;14.79;100.00
71165;BME280;58859;55.132;-1.586;2023-05-08T04:31:33;101157.56;;;14.62;100.00
71165;BME280;58859;55.132;-1.586;2023-05-08T04:34:00;101150.84;;;14.60;100.00
71165;BME280;58859;55.132;-1.586;2023-05-08T04:36:30;101150.69;;;14.61;100.00
71165;BME280;58859;55.132;-1.586;2023-05-08T04:38:55;101155.94;;;14.69;100.00
71165;BME280;58859;55.132;-1.586;2023-05-08T04:41:21;101157.56;;;14.62;100.00
71165;BME280;58859;55.132;-1.586;2023-05-08T04:43:46;101157.22;;;14.81;100.00
71165;BME280;58859;55.132;-1.586;2023-05-08T04:46:12;101157.03;;;14.59;100.00
71165;BME280;58859;55.132;-1.586;2023-05-08T04:48:37;101153.28;;;14.53;100.00
71165;BME280;58859;55.132;-1.586;2023-05-08T04:51:03;101148.72;;;14.47;100.00
71165;BME280;58859;55.132;-1.586;2023-05-08T04:53:28;101151.81;;;15.07;100.00
71165;BME280;58859;55.132;-1.586;2023-05-08T04:55:54;101142.34;;;15.14;100.00
71165;BME280;58859;55.132;-1.586;2023-05-08T04:58:19;101153.00;;;14.80;100.00
71165;BME280;58859;55.132;-1.586;2023-05-08T05:00:45;101147.94;;;14.87;100.00
71165;BME280;58859;55.132;-1.586;2023-05-08T05:03:10;101144.28;;;14.96;100.00
71165;BME280;58859;55.132;-1.586;2023-05-08T05:05:35;101146.25;;;15.02;100.00
71165;BME280;58859;55.132;-1.586;2023-05-08T05:08:01;101144.47;;;14.94;100.00
71165;BME280;58859;55.132;-1.586;2023-05-08T05:10:26;101150.00;;;15.16;100.00
71165;BME280;58859;55.132;-1.586;2023-05-08T05:12:52;101149.53;;;15.04;100.00
71165;BME280;58859;55.132;-1.586;2023-05-08T05:15:17;101162.31;;;14.99;100.00
71165;BME280;58859;55.132;-1.586;2023-05-08T05:17:43;101156.41;;;15.13;100.00
71165;BME280;58859;55.132;-1.586;2023-05-08T05:20:08;101151.50;;;15.02;100.00
71165;BME280;58859;55.132;-1.586;2023-05-08T05:22:34;101154.44;;;15.23;100.00
71165;BME280;58859;55.132;-1.586;2023-05-08T05:24:59;101156.56;;;15.20;100.00
71165;BME280;58859;55.132;-1.586;2023-05-08T05:27:25;101154.44;;;14.99;100.00
71165;BME280;58859;55.132;-1.586;2023-05-08T05:29:50;101158.19;;;15.37;100.00
71165;BME280;58859;55.132;-1.586;2023-05-08T05:32:16;101152.78;;;15.30;100.00
71165;BME280;58859;55.132;-1.586;2023-05-08T05:34:41;101153.09;;;15.27;100.00
71165;BME280;58859;55.132;-1.586;2023-05-08T05:37:07;101149.66;;;15.27;100.00
71165;BME280;58859;55.132;-1.586;2023-05-08T05:39:32;101157.75;;;15.01;100.00
71165;BME280;58859;55.132;-1.586;2023-05-08T05:41:57;101153.78;;;15.13;100.00
71165;BME280;58859;55.132;-1.586;2023-05-08T05:44:23;101154.09;;;15.34;100.00
71165;BME280;58859;55.132;-1.586;2023-05-08T05:46:48;101152.78;;;15.55;100.00
71165;BME280;58859;55.132;-1.586;2023-05-08T05:49:14;101152.91;;;15.61;100.00
71165;BME280;58859;55.132;-1.586;2023-05-08T05:51:39;101157.81;;;15.64;100.00
71165;BME280;58859;55.132;-1.586;2023-05-08T05:54:04;101164.56;;;15.42;100.00
71165;BME280;58859;55.132;-1.586;2023-05-08T05:56:30;101146.38;;;15.41;100.00
71165;BME280;58859;55.132;-1.586;2023-05-08T05:58:55;101161.25;;;15.65;100.00
71165;BME280;58859;55.132;-1.586;2023-05-08T06:01:20;101154.66;;;15.77;100.00
71165;BME280;58859;55.132;-1.586;2023-05-08T06:03:48;101154.72;;;15.61;100.00
71165;BME280;58859;55.132;-1.586;2023-05-08T06:06:14;101146.84;;;15.61;100.00
71165;BME280;58859;55.132;-1.586;2023-05-08T06:08:39;101150.66;;;15.97;100.00
71165;BME280;58859;55.132;-1.586;2023-05-08T06:11:05;101151.75;;;15.64;100.00
71165;BME280;58859;55.132;-1.586;2023-05-08T06:13:30;101144.31;;;16.14;100.00
71165;BME280;58859;55.132;-1.586;2023-05-08T06:15:56;101151.63;;;16.27;100.00
71165;BME280;58859;55.132;-1.586;2023-05-08T06:18:21;101147.28;;;16.11;100.00
71165;BME280;58859;55.132;-1.586;2023-05-08T06:20:47;101139.84;;;16.23;100.00
71165;BME280;58859;55.132;-1.586;2023-05-08T06:23:12;101142.25;;;16.01;100.00
71165;BME280;58859;55.132;-1.586;2023-05-08T06:25:38;101136.78;;;16.11;100.00
71165;BME280;58859;55.132;-1.586;2023-05-08T06:28:04;101135.25;;;15.94;100.00
71165;BME280;58859;55.132;-1.586;2023-05-08T06:30:32;101137.56;;;16.20;100.00
71165;BME280;58859;55.132;-1.586;2023-05-08T06:32:57;101135.63;;;16.14;100.00
71165;BME280;58859;55.132;-1.586;2023-05-08T06:35:23;101133.25;;;16.27;100.00
71165;BME280;58859;55.132;-1.586;2023-05-08T06:37:48;101129.38;;;16.45;100.00
71165;BME280;58859;55.132;-1.586;2023-05-08T06:40:14;101140.34;;;16.18;100.00
71165;BME280;58859;55.132;-1.586;2023-05-08T06:42:39;101143.47;;;16.22;100.00
71165;BME280;58859;55.132;-1.586;2023-05-08T06:45:06;101141.69;;;16.45;100.00
71165;BME280;58859;55.132;-1.586;2023-05-08T06:47:32;101146.72;;;16.24;100.00
71165;BME280;58859;55.132;-1.586;2023-05-08T06:49:59;101142.13;;;16.26;100.00
71165;BME280;58859;55.132;-1.586;2023-05-08T06:52:24;101146.41;;;16.19;100.00
71165;BME280;58859;55.132;-1.586;2023-05-08T06:54:50;101135.94;;;16.41;100.00
71165;BME280;58859;55.132;-1.586;2023-05-08T06:57:15;101137.50;;;16.28;100.00
71165;BME280;58859;55.132;-1.586;2023-05-08T06:59:41;101140.13;;;16.28;100.00
71165;BME280;58859;55.132;-1.586;2023-05-08T07:02:06;101143.44;;;15.91;100.00
71165;BME280;58859;55.132;-1.586;2023-05-08T07:04:34;101135.47;;;16.38;100.00
71165;BME280;58859;55.132;-1.586;2023-05-08T07:06:59;101141.34;;;16.17;100.00
71165;BME280;58859;55.132;-1.586;2023-05-08T07:09:24;101137.53;;;15.50;100.00
71165;BME280;58859;55.132;-1.586;2023-05-08T07:11:50;101136.31;;;15.77;100.00
71165;BME280;58859;55.132;-1.586;2023-05-08T07:14:15;101130.63;;;15.57;100.00
71165;BME280;58859;55.132;-1.586;2023-05-08T07:16:41;101131.47;;;15.58;100.00
71165;BME280;58859;55.132;-1.586;2023-05-08T07:19:06;101126.53;;;15.63;100.00
71165;BME280;58859;55.132;-1.586;2023-05-08T07:21:32;101123.41;;;15.59;100.00
71165;BME280;58859;55.132;-1.586;2023-05-08T07:23:57;101122.09;;;15.63;100.00
71165;BME280;58859;55.132;-1.586;2023-05-08T07:26:24;101125.63;;;15.78;100.00
71165;BME280;58859;55.132;-1.586;2023-05-08T07:28:49;101130.41;;;15.67;100.00
71165;BME280;58859;55.132;-1.586;2023-05-08T07:31:15;101126.66;;;15.61;100.00
71165;BME280;58859;55.132;-1.586;2023-05-08T07:33:41;101125.53;;;15.56;100.00
71165;BME280;58859;55.132;-1.586;2023-05-08T07:36:07;101128.19;;;15.47;100.00
71165;BME280;58859;55.132;-1.586;2023-05-08T07:38:32;101124.41;;;15.42;100.00
71165;BME280;58859;55.132;-1.586;2023-05-08T07:40:58;101126.56;;;15.30;100.00
71165;BME280;58859;55.132;-1.586;2023-05-08T07:43:25;101121.63;;;15.60;100.00
71165;BME280;58859;55.132;-1.586;2023-05-08T07:45:51;101119.03;;;15.90;100.00
71165;BME280;58859;55.132;-1.586;2023-05-08T07:48:16;101108.47;;;15.68;100.00
71165;BME280;58859;55.132;-1.586;2023-05-08T07:50:42;101111.88;;;15.76;100.00
71165;BME280;58859;55.132;-1.586;2023-05-08T07:53:08;101104.03;;;15.68;100.00
71165;BME280;58859;55.132;-1.586;2023-05-08T07:55:34;101098.63;;;15.70;100.00
71165;BME280;58859;55.132;-1.586;2023-05-08T07:57:59;101089.97;;;15.69;100.00
71165;BME280;58859;55.132;-1.586;2023-05-08T08:00:25;101094.91;;;15.56;100.00
71165;BME280;58859;55.132;-1.586;2023-05-08T08:02:53;101088.16;;;15.62;100.00
71165;BME280;58859;55.132;-1.586;2023-05-08T08:05:19;101086.28;;;15.31;100.00
71165;BME280;58859;55.132;-1.586;2023-05-08T08:07:44;101079.69;;;15.35;100.00
71165;BME280;58859;55.132;-1.586;2023-05-08T08:10:10;101088.53;;;15.50;100.00
71165;BME280;58859;55.132;-1.586;2023-05-08T08:12:35;101089.41;;;15.35;100.00
71165;BME280;58859;55.132;-1.586;2023-05-08T08:15:01;101083.94;;;15.61;100.00
71165;BME280;58859;55.132;-1.586;2023-05-08T08:17:26;101096.91;;;15.30;100.00
71165;BME280;58859;55.132;-1.586;2023-05-08T08:19:52;101092.34;;;15.32;100.00
71165;BME280;58859;55.132;-1.586;2023-05-08T08:22:17;101093.13;;;15.40;100.00
71165;BME280;58859;55.132;-1.586;2023-05-08T08:24:43;101092.63;;;15.53;100.00
71165;BME280;58859;55.132;-1.586;2023-05-08T08:27:08;101090.88;;;15.21;100.00
71165;BME280;58859;55.132;-1.586;2023-05-08T08:29:33;101093.72;;;14.87;100.00
71165;BME280;58859;55.132;-1.586;2023-05-08T08:31:59;101084.69;;;15.14;100.00
71165;BME280;58859;55.132;-1.586;2023-05-08T08:34:25;101083.88;;;15.14;100.00
71165;BME280;58859;55.132;-1.586;2023-05-08T08:36:50;101090.56;;;15.16;100.00
71165;BME280;58859;55.132;-1.586;2023-05-08T08:39:16;101086.03;;;14.86;100.00
71165;BME280;58859;55.132;-1.586;2023-05-08T08:41:41;101081.44;;;14.96;100.00
71165;BME280;58859;55.132;-1.586;2023-05-08T08:44:07;101081.56;;;15.19;100.00
71165;BME280;58859;55.132;-1.586;2023-05-08T08:46:33;101085.31;;;15.16;100.00
71165;BME280;58859;55.132;-1.586;2023-05-08T08:49:02;101080.19;;;15.39;100.00
71165;BME280;58859;55.132;-1.586;2023-05-08T08:51:32;101076.19;;;15.12;100.00
71165;BME280;58859;55.132;-1.586;2023-05-08T08:54:07;101071.72;;;15.29;100.00
71165;BME280;58859;55.132;-1.586;2023-05-08T08:56:35;101075.03;;;14.98;100.00
71165;BME280;58859;55.132;-1.586;2023-05-08T08:59:03;101077.81;;;15.99;100.00
71165;BME280;58859;55.132;-1.586;2023-05-08T09:01:29;101067.97;;;15.70;100.00
71165;BME280;58859;55.132;-1.586;2023-05-08T09:03:57;101077.41;;;15.40;100.00
71165;BME280;58859;55.132;-1.586;2023-05-08T09:06:24;101073.78;;;15.41;100.00
71165;BME280;58859;55.132;-1.586;2023-05-08T09:08:50;101077.66;;;15.15;100.00
71165;BME280;58859;55.132;-1.586;2023-05-08T09:11:18;101066.19;;;15.08;100.00
71165;BME280;58859;55.132;-1.586;2023-05-08T09:13:44;101065.44;;;15.46;100.00
71165;BME280;58859;55.132;-1.586;2023-05-08T09:16:09;101075.06;;;14.82;100.00
71165;BME280;58859;55.132;-1.586;2023-05-08T09:18:35;101052.16;;;14.92;100.00
71165;BME280;58859;55.132;-1.586;2023-05-08T09:21:00;101060.34;;;14.81;100.00
71165;BME280;58859;55.132;-1.586;2023-05-08T09:23:26;101060.34;;;14.73;100.00
71165;BME280;58859;55.132;-1.586;2023-05-08T09:25:51;101059.22;;;14.68;100.00
71165;BME280;58859;55.132;-1.586;2023-05-08T09:30:57;101049.06;;;14.81;100.00
71165;BME280;58859;55.132;-1.586;2023-05-08T09:33:27;101043.13;;;15.03;100.00
71165;BME280;58859;55.132;-1.586;2023-05-08T09:35:56;101039.41;;;14.65;100.00
71165;BME280;58859;55.132;-1.586;2023-05-08T09:41:11;101045.22;;;15.08;100.00
71165;BME280;58859;55.132;-1.586;2023-05-08T09:43:38;101050.97;;;15.11;100.00
71165;BME280;58859;55.132;-1.586;2023-05-08T09:46:23;101051.19;;;14.77;100.00
71165;BME280;58859;55.132;-1.586;2023-05-08T09:48:49;101040.72;;;14.45;100.00
71165;BME280;58859;55.132;-1.586;2023-05-08T09:51:15;101038.28;;;14.35;100.00
71165;BME280;58859;55.132;-1.586;2023-05-08T09:53:41;101040.66;;;15.02;100.00
71165;BME280;58859;55.132;-1.586;2023-05-08T09:56:06;101038.94;;;14.54;100.00
71165;BME280;58859;55.132;-1.586;2023-05-08T09:58:42;101041.06;;;15.37;100.00
71165;BME280;58859;55.132;-1.586;2023-05-08T10:01:30;101036.44;;;15.01;100.00
71165;BME280;58859;55.132;-1.586;2023-05-08T10:03:56;101045.63;;;14.80;100.00
71165;BME280;58859;55.132;-1.586;2023-05-08T10:06:22;101038.56;;;14.89;100.00
71165;BME280;58859;55.132;-1.586;2023-05-08T10:08:47;101041.81;;;14.99;100.00
71165;BME280;58859;55.132;-1.586;2023-05-08T10:13:39;101038.91;;;15.41;100.00
71165;BME280;58859;55.132;-1.586;2023-05-08T10:16:06;101036.44;;;15.01;100.00
71165;BME280;58859;55.132;-1.586;2023-05-08T10:18:37;101038.03;;;15.10;100.00
71165;BME280;58859;55.132;-1.586;2023-05-08T10:21:05;101039.53;;;14.88;100.00
71165;BME280;58859;55.132;-1.586;2023-05-08T10:23:33;101028.59;;;14.92;100.00
71165;BME280;58859;55.132;-1.586;2023-05-08T10:26:05;101034.03;;;15.30;100.00
71165;BME280;58859;55.132;-1.586;2023-05-08T10:31:11;101038.88;;;15.02;100.00
71165;BME280;58859;55.132;-1.586;2023-05-08T10:33:39;101035.06;;;15.21;100.00
71165;BME280;58859;55.132;-1.586;2023-05-08T10:36:05;101034.59;;;15.09;100.00
71165;BME280;58859;55.132;-1.586;2023-05-08T10:38:31;101035.06;;;15.21;100.00
71165;BME280;58859;55.132;-1.586;2023-05-08T10:41:00;101031.31;;;15.07;100.00
71165;BME280;58859;55.132;-1.586;2023-05-08T10:43:28;101035.47;;;15.40;100.00
71165;BME280;58859;55.132;-1.586;2023-05-08T10:45:55;101032.59;;;15.19;100.00
71165;BME280;58859;55.132;-1.586;2023-05-08T10:48:38;101027.69;;;15.16;100.00
71165;BME280;58859;55.132;-1.586;2023-05-08T10:53:39;101025.81;;;15.41;100.00
71165;BME280;58859;55.132;-1.586;2023-05-08T10:56:07;101030.38;;;15.55;100.00
71165;BME280;58859;55.132;-1.586;2023-05-08T10:58:35;101025.81;;;15.33;100.00
71165;BME280;58859;55.132;-1.586;2023-05-08T11:03:37;101021.78;;;15.69;100.00
71165;BME280;58859;55.132;-1.586;2023-05-08T11:06:03;101021.44;;;15.64;100.00
71165;BME280;58859;55.132;-1.586;2023-05-08T11:08:29;101027.75;;;15.55;100.00
71165;BME280;58859;55.132;-1.586;2023-05-08T11:13:27;101020.13;;;15.68;100.00
71165;BME280;58859;55.132;-1.586;2023-05-08T11:15:56;101016.28;;;15.79;100.00
71165;BME280;58859;55.132;-1.586;2023-05-08T11:18:21;101021.78;;;15.61;100.00
71165;BME280;58859;55.132;-1.586;2023-05-08T11:20:59;101009.09;;;15.73;100.00
71165;BME280;58859;55.132;-1.586;2023-05-08T11:23:28;101019.94;;;15.70;100.00
71165;BME280;58859;55.132;-1.586;2023-05-08T11:26:04;101018.06;;;15.86;100.00
71165;BME280;58859;55.132;-1.586;2023-05-08T11:29:15;101016.03;;;15.96;100.00
71165;BME280;58859;55.132;-1.586;2023-05-08T11:31:19;101010.75;;;15.74;100.00
71165;BME280;58859;55.132;-1.586;2023-05-08T11:33:45;101007.50;;;15.72;100.00
71165;BME280;58859;55.132;-1.586;2023-05-08T11:36:14;101007.38;;;16.10;100.00
71165;BME280;58859;55.132;-1.586;2023-05-08T11:38:41;101014.56;;;15.94;100.00
71165;BME280;58859;55.132;-1.586;2023-05-08T11:41:20;101008.56;;;15.85;100.00
71165;BME280;58859;55.132;-1.586;2023-05-08T11:46:22;100986.09;;;16.28;100.00
71165;BME280;58859;55.132;-1.586;2023-05-08T11:48:47;100990.97;;;16.54;100.00
71165;BME280;58859;55.132;-1.586;2023-05-08T11:51:16;100981.97;;;16.48;100.00
71165;BME280;58859;55.132;-1.586;2023-05-08T11:53:43;100988.88;;;16.27;100.00
71165;BME280;58859;55.132;-1.586;2023-05-08T11:56:08;100992.03;;;16.22;100.00
71165;BME280;58859;55.132;-1.586;2023-05-08T11:58:34;100982.31;;;16.31;100.00
71165;BME280;58859;55.132;-1.586;2023-05-08T12:01:01;100993.97;;;16.28;100.00
71165;BME280;58859;55.132;-1.586;2023-05-08T12:03:26;101004.75;;;16.10;100.00
71165;BME280;58859;55.132;-1.586;2023-05-08T12:05:55;101000.69;;;16.08;100.00
71165;BME280;58859;55.132;-1.586;2023-05-08T12:08:22;100992.53;;;16.26;100.00
71165;BME280;58859;55.132;-1.586;2023-05-08T12:10:49;100988.53;;;16.30;100.00
71165;BME280;58859;55.132;-1.586;2023-05-08T12:13:22;100976.84;;;16.18;100.00
71165;BME280;58859;55.132;-1.586;2023-05-08T12:15:52;100985.19;;;16.58;100.00
71165;BME280;58859;55.132;-1.586;2023-05-08T12:18:19;100986.19;;;16.35;100.00
71165;BME280;58859;55.132;-1.586;2023-05-08T12:20:50;100981.84;;;16.64;100.00
71165;BME280;58859;55.132;-1.586;2023-05-08T12:23:16;100991.97;;;16.30;100.00
71165;BME280;58859;55.132;-1.586;2023-05-08T12:25:42;100976.38;;;16.51;100.00
71165;BME280;58859;55.132;-1.586;2023-05-08T12:28:10;100984.59;;;16.11;100.00
71165;BME280;58859;55.132;-1.586;2023-05-08T12:30:36;100980.50;;;16.31;100.00
71165;BME280;58859;55.132;-1.586;2023-05-08T12:33:03;100980.47;;;16.54;100.00
71165;BME280;58859;55.132;-1.586;2023-05-08T12:35:29;100982.75;;;16.34;100.00
71165;BME280;58859;55.132;-1.586;2023-05-08T12:37:59;100986.13;;;16.43;100.00
71165;BME280;58859;55.132;-1.586;2023-05-08T12:40:30;100980.22;;;16.03;100.00
71165;BME280;58859;55.132;-1.586;2023-05-08T12:42:56;100979.72;;;16.45;100.00
71165;BME280;58859;55.132;-1.586;2023-05-08T12:45:26;100978.13;;;16.59;100.00
71165;BME280;58859;55.132;-1.586;2023-05-08T12:47:53;100978.78;;;16.76;100.00
71165;BME280;58859;55.132;-1.586;2023-05-08T12:50:22;100973.81;;;16.43;100.00
71165;BME280;58859;55.132;-1.586;2023-05-08T12:52:49;100963.06;;;16.16;100.00
71165;BME280;58859;55.132;-1.586;2023-05-08T12:55:26;100975.72;;;16.12;100.00
71165;BME280;58859;55.132;-1.586;2023-05-08T12:58:06;100964.91;;;16.82;100.00
71165;BME280;58859;55.132;-1.586;2023-05-08T13:00:39;100974.25;;;16.70;100.00
71165;BME280;58859;55.132;-1.586;2023-05-08T13:03:07;100966.19;;;16.71;100.00
71165;BME280;58859;55.132;-1.586;2023-05-08T13:05:34;100965.25;;;17.22;100.00
71165;BME280;58859;55.132;-1.586;2023-05-08T13:08:05;100971.63;;;16.84;100.00
71165;BME280;58859;55.132;-1.586;2023-05-08T13:10:50;100978.69;;;16.84;100.00
71165;BME280;58859;55.132;-1.586;2023-05-08T13:13:17;100975.84;;;17.29;100.00
71165;BME280;58859;55.132;-1.586;2023-05-08T13:15:43;100963.84;;;17.41;100.00
71165;BME280;58859;55.132;-1.586;2023-05-08T13:18:09;100964.09;;;17.46;100.00
71165;BME280;58859;55.132;-1.586;2023-05-08T13:20:35;100962.25;;;17.25;100.00
71165;BME280;58859;55.132;-1.586;2023-05-08T13:23:01;100961.38;;;17.04;100.00